createdAt,value
2023-12-30T00:02:52.717Z,100574.25
2023-12-30T00:05:55.179Z,100567.59
2023-12-30T00:08:57.673Z,100568.72
2023-12-30T00:12:02.496Z,100577.91
2023-12-30T00:15:05.402Z,100572.56
2023-12-30T00:18:08.311Z,100577.34
2023-12-30T00:21:10.875Z,100571.06
2023-12-30T00:24:13.362Z,100569.38
2023-12-30T00:27:18.114Z,100574.03
2023-12-30T00:30:20.635Z,100580.03
2023-12-30T00:33:23.275Z,100588.22
2023-12-30T00:36:31.180Z,100565.31
2023-12-30T00:39:33.651Z,100573.72
2023-12-30T00:42:36.177Z,100576.78
2023-12-30T00:45:38.692Z,100560.41
2023-12-30T00:48:44.593Z,100574.31
2023-12-30T00:51:50.122Z,100567.66
2023-12-30T00:54:57.750Z,100565.97
2023-12-30T00:58:00.400Z,100570.22
2023-12-30T01:01:03.113Z,100567.88
2023-12-30T01:04:05.735Z,100570.28
2023-12-30T01:07:12.140Z,100571.16
2023-12-30T01:10:18.056Z,100571.66
2023-12-30T01:13:22.764Z,100576.72
2023-12-30T01:16:26.335Z,100584.69
2023-12-30T01:19:28.896Z,100573.75
2023-12-30T01:22:31.533Z,100580.97
2023-12-30T01:25:34.105Z,100586.53
2023-12-30T01:28:39.469Z,100576.53
2023-12-30T01:31:42.188Z,100590.22
2023-12-30T01:34:44.940Z,100584.56
2023-12-30T01:37:48.158Z,100577.50
2023-12-30T01:40:54.338Z,100573.97
2023-12-30T01:43:59.613Z,100575.84
2023-12-30T01:47:02.670Z,100560.75
2023-12-30T01:50:08.780Z,100566.34
2023-12-30T01:53:13.725Z,100566.13
2023-12-30T01:56:18.504Z,100572.28
2023-12-30T01:59:21.252Z,100570.22
2023-12-30T02:02:24.035Z,100556.44
2023-12-30T02:05:27.169Z,100564.25
2023-12-30T02:08:29.722Z,100561.38
2023-12-30T02:11:32.233Z,100566.53
2023-12-30T02:14:34.878Z,100544.84
2023-12-30T02:17:37.673Z,100567.22
2023-12-30T02:20:42.816Z,100548.88
2023-12-30T02:23:45.658Z,100546.28
2023-12-30T02:26:53.328Z,100539.97
2023-12-30T02:29:58.913Z,100539.34
2023-12-30T02:33:01.731Z,100545.00
2023-12-30T02:36:04.788Z,100546.41
2023-12-30T02:39:07.711Z,100551.97
2023-12-30T02:42:10.212Z,100550.38
2023-12-30T02:45:15.726Z,100547.97
2023-12-30T02:48:19.142Z,100555.72
2023-12-30T02:51:23.833Z,100548.59
2023-12-30T02:54:26.418Z,100553.53
2023-12-30T02:57:31.038Z,100546.09
2023-12-30T03:00:33.475Z,100548.97
2023-12-30T03:03:38.083Z,100550.44
2023-12-30T03:06:40.591Z,100556.31
2023-12-30T03:09:43.051Z,100558.25
2023-12-30T03:12:45.481Z,100558.44
2023-12-30T03:15:49.215Z,100551.91
2023-12-30T03:18:51.667Z,100555.53
2023-12-30T03:21:55.034Z,100548.25
2023-12-30T03:24:57.633Z,100550.91
2023-12-30T03:28:00.131Z,100541.84
2023-12-30T03:31:05.361Z,100545.28
2023-12-30T03:34:08.307Z,100538.94
2023-12-30T03:37:18.268Z,100529.34
2023-12-30T03:40:20.779Z,100540.03
2023-12-30T03:43:23.343Z,100543.53
2023-12-30T03:46:25.928Z,100536.34
2023-12-30T03:49:28.772Z,100542.66
2023-12-30T03:52:31.636Z,100551.28
2023-12-30T03:55:36.310Z,100550.59
2023-12-30T03:58:39.226Z,100546.53
2023-12-30T04:01:45.033Z,100550.47
2023-12-30T04:04:48.309Z,100552.16
2023-12-30T04:07:53.234Z,100537.09
2023-12-30T04:10:55.653Z,100552.50
2023-12-30T04:13:58.122Z,100543.41
2023-12-30T04:17:00.609Z,100561.69
2023-12-30T04:20:03.718Z,100553.84
2023-12-30T04:23:06.485Z,100545.34
2023-12-30T04:26:09.761Z,100552.91
2023-12-30T04:29:12.481Z,100553.59
2023-12-30T04:32:14.942Z,100546.78
2023-12-30T04:35:17.422Z,100554.81
2023-12-30T04:38:21.123Z,100549.34
2023-12-30T04:41:26.098Z,100564.38
2023-12-30T04:44:28.537Z,100546.44
2023-12-30T04:47:33.359Z,100552.91
2023-12-30T04:50:36.353Z,100548.75
2023-12-30T04:53:38.879Z,100559.28
2023-12-30T04:56:41.499Z,100567.63
2023-12-30T04:59:46.623Z,100560.09
2023-12-30T05:02:49.255Z,100570.03
2023-12-30T05:05:52.623Z,100570.72
2023-12-30T05:08:55.268Z,100573.44
2023-12-30T05:11:57.822Z,100575.63
2023-12-30T05:15:02.574Z,100569.88
2023-12-30T05:18:05.703Z,100576.34
2023-12-30T05:21:17.854Z,100582.47
2023-12-30T05:24:20.388Z,100589.78
2023-12-30T05:27:23.089Z,100569.81
2023-12-30T05:30:30.191Z,100601.94
2023-12-30T05:33:35.227Z,100588.81
2023-12-30T05:36:38.947Z,100601.09
2023-12-30T05:39:41.524Z,100576.97
2023-12-30T05:42:43.974Z,100581.84
2023-12-30T05:45:46.522Z,100581.63
2023-12-30T05:48:49.077Z,100579.84
2023-12-30T05:51:51.932Z,100587.88
2023-12-30T05:54:54.623Z,100589.28
2023-12-30T05:57:57.049Z,100610.75
2023-12-30T06:00:59.575Z,100601.56
2023-12-30T06:04:02.315Z,100622.34
2023-12-30T06:07:07.432Z,100619.22
2023-12-30T06:10:10.388Z,100634.19
2023-12-30T06:13:18.760Z,100622.94
2023-12-30T06:16:23.847Z,100620.25
2023-12-30T06:19:29.048Z,100639.78
2023-12-30T06:22:37.466Z,100611.75
2023-12-30T06:25:40.630Z,100636.78
2023-12-30T06:28:51.872Z,100637.44
2023-12-30T06:32:00.330Z,100633.81
2023-12-30T06:35:33.577Z,100634.06
2023-12-30T06:39:25.990Z,100649.38
2023-12-30T06:42:31.006Z,100639.56
2023-12-30T06:45:33.477Z,100643.03
2023-12-30T06:48:36.063Z,100654.53
2023-12-30T06:51:38.538Z,100647.06
2023-12-30T06:54:41.928Z,100657.25
2023-12-30T06:57:44.744Z,100654.28
2023-12-30T07:00:47.262Z,100656.94
2023-12-30T07:03:49.757Z,100662.75
2023-12-30T07:06:52.485Z,100675.25
2023-12-30T07:09:55.100Z,100676.13
2023-12-30T07:12:58.160Z,100689.06
2023-12-30T07:16:00.915Z,100700.00
2023-12-30T07:19:03.481Z,100701.25
2023-12-30T07:22:06.089Z,100714.88
2023-12-30T07:25:11.114Z,100702.69
2023-12-30T07:28:16.170Z,100715.09
2023-12-30T07:31:21.119Z,100687.53
2023-12-30T07:34:23.760Z,100705.16
2023-12-30T07:37:26.321Z,100699.66
2023-12-30T07:40:31.203Z,100713.25
2023-12-30T07:43:36.857Z,100713.97
2023-12-30T07:46:41.611Z,100717.63
2023-12-30T07:49:44.228Z,100716.84
2023-12-30T07:52:46.998Z,100722.66
2023-12-30T07:55:49.599Z,100719.69
2023-12-30T07:58:52.171Z,100719.22
2023-12-30T08:01:57.685Z,100720.88
2023-12-30T08:05:01.801Z,100724.84
2023-12-30T08:08:04.882Z,100739.16
2023-12-30T08:11:07.461Z,100730.16
2023-12-30T08:14:10.717Z,100719.47
2023-12-30T08:17:13.751Z,100727.41
2023-12-30T08:20:16.524Z,100729.09
2023-12-30T08:23:18.985Z,100728.47
2023-12-30T08:26:26.722Z,100731.56
2023-12-30T08:29:34.943Z,100734.34
2023-12-30T08:32:38.073Z,100738.50
2023-12-30T08:35:40.677Z,100741.09
2023-12-30T08:38:43.508Z,100758.38
2023-12-30T08:41:46.178Z,100757.06
2023-12-30T08:44:48.852Z,100750.66
2023-12-30T08:47:53.839Z,100752.84
2023-12-30T08:50:56.461Z,100746.53
2023-12-30T08:53:58.973Z,100754.66
2023-12-30T08:57:01.712Z,100758.03
2023-12-30T09:00:11.092Z,100766.91
2023-12-30T09:03:17.846Z,100763.72
2023-12-30T09:06:22.140Z,100769.81
2023-12-30T09:09:24.640Z,100760.66
2023-12-30T09:12:27.114Z,100759.72
2023-12-30T09:15:37.170Z,100758.75
2023-12-30T09:18:44.351Z,100760.06
2023-12-30T09:21:47.024Z,100758.56
2023-12-30T09:24:50.129Z,100752.31
2023-12-30T09:27:52.627Z,100756.75
2023-12-30T09:30:57.320Z,100759.88
2023-12-30T09:34:00.372Z,100755.84
2023-12-30T09:37:03.055Z,100755.97
2023-12-30T09:40:10.009Z,100747.31
2023-12-30T09:43:12.658Z,100738.19
2023-12-30T09:46:15.908Z,100750.84
2023-12-30T09:49:18.671Z,100743.50
2023-12-30T09:52:23.643Z,100744.13
2023-12-30T09:55:28.462Z,100745.22
2023-12-30T09:58:30.936Z,100746.47
2023-12-30T10:01:35.163Z,100736.69
2023-12-30T10:04:40.022Z,100743.81
2023-12-30T10:07:51.782Z,100739.59
2023-12-30T10:10:58.665Z,100741.44
2023-12-30T10:14:04.698Z,100735.59
2023-12-30T10:17:07.267Z,100739.53
2023-12-30T10:20:11.777Z,100729.53
2023-12-30T10:23:15.457Z,100722.53
2023-12-30T10:26:19.237Z,100736.56
2023-12-30T10:29:22.186Z,100712.00
2023-12-30T10:32:24.730Z,100717.84
2023-12-30T10:35:29.773Z,100717.47
2023-12-30T10:38:32.226Z,100702.22
2023-12-30T10:41:34.610Z,100698.66
2023-12-30T10:44:39.459Z,100703.03
2023-12-30T10:47:42.190Z,100699.50
2023-12-30T10:50:44.827Z,100702.03
2023-12-30T10:53:49.105Z,100692.34
2023-12-30T10:56:55.857Z,100693.38
2023-12-30T10:59:58.621Z,100701.88
2023-12-30T11:03:04.284Z,100691.16
2023-12-30T11:06:28.503Z,100683.84
2023-12-30T11:09:31.161Z,100684.34
2023-12-30T11:12:33.800Z,100678.81
2023-12-30T11:15:39.507Z,100679.44
2023-12-30T11:18:52.848Z,100683.00
2023-12-30T11:21:59.522Z,100673.44
2023-12-30T11:25:02.025Z,100674.56
2023-12-30T11:28:20.264Z,100679.75
2023-12-30T11:31:34.028Z,100669.16
2023-12-30T11:34:36.646Z,100671.00
2023-12-30T11:37:40.718Z,100659.31
2023-12-30T11:40:43.972Z,100663.66
2023-12-30T11:43:46.696Z,100656.47
2023-12-30T11:46:51.733Z,100656.72
2023-12-30T11:50:12.998Z,100647.06
2023-12-30T11:53:20.589Z,100646.19
2023-12-30T11:56:23.621Z,100643.56
2023-12-30T11:59:26.481Z,100645.81
2023-12-30T12:02:29.745Z,100648.16
2023-12-30T12:05:34.687Z,100641.94
2023-12-30T12:08:41.289Z,100645.56
2023-12-30T12:11:43.871Z,100638.41
2023-12-30T12:14:51.299Z,100640.06
2023-12-30T12:17:53.906Z,100642.97
2023-12-30T12:20:56.429Z,100635.94
2023-12-30T12:23:58.891Z,100633.22
2023-12-30T12:27:04.511Z,100630.47
2023-12-30T12:30:10.566Z,100627.41
2023-12-30T12:33:14.324Z,100623.50
2023-12-30T12:36:20.677Z,100624.72
2023-12-30T12:39:25.663Z,100626.75
2023-12-30T12:42:31.038Z,100618.38
2023-12-30T12:45:34.087Z,100625.19
2023-12-30T12:48:36.756Z,100625.56
2023-12-30T12:51:40.719Z,100620.47
2023-12-30T12:54:46.630Z,100622.00
2023-12-30T12:57:49.091Z,100624.47
2023-12-30T13:00:51.574Z,100616.34
2023-12-30T13:03:57.139Z,100610.22
2023-12-30T13:06:59.747Z,100619.22
2023-12-30T13:10:22.470Z,100620.06
2023-12-30T13:13:25.067Z,100611.38
2023-12-30T13:16:27.753Z,100612.41
2023-12-30T13:19:30.447Z,100620.16
2023-12-30T13:22:35.417Z,100615.34
2023-12-30T13:25:39.536Z,100618.88
2023-12-30T13:28:43.263Z,100624.81
2023-12-30T13:31:47.320Z,100617.97
2023-12-30T13:34:52.911Z,100621.69
2023-12-30T13:37:56.936Z,100630.97
2023-12-30T13:41:01.798Z,100627.94
2023-12-30T13:44:10.815Z,100638.19
2023-12-30T13:47:31.916Z,100642.22
2023-12-30T13:50:49.217Z,100648.00
2023-12-30T13:53:54.764Z,100650.00
2023-12-30T13:57:12.617Z,100666.22
2023-12-30T14:00:17.299Z,100653.16
2023-12-30T14:03:24.603Z,100663.88
2023-12-30T14:06:35.078Z,100663.91
2023-12-30T14:09:55.262Z,100666.16
2023-12-30T14:13:02.608Z,100660.75
2023-12-30T14:16:07.161Z,100664.50
2023-12-30T14:19:10.395Z,100664.63
2023-12-30T14:22:13.529Z,100670.97
2023-12-30T14:25:18.377Z,100659.06
2023-12-30T14:28:23.279Z,100674.31
2023-12-30T14:31:25.753Z,100670.38
2023-12-30T14:34:28.362Z,100665.59
2023-12-30T14:37:31.263Z,100673.34
2023-12-30T14:40:33.786Z,100678.25
2023-12-30T14:43:36.555Z,100678.63
2023-12-30T14:46:39.140Z,100683.72
2023-12-30T14:49:42.534Z,100676.13
2023-12-30T14:52:45.307Z,100690.22
2023-12-30T14:55:49.414Z,100701.34
2023-12-30T14:58:52.173Z,100696.88
2023-12-30T15:01:56.180Z,100685.13
2023-12-30T15:05:02.050Z,100704.50
2023-12-30T15:08:05.365Z,100710.50
2023-12-30T15:11:10.119Z,100710.41
2023-12-30T15:14:12.896Z,100703.31
2023-12-30T15:17:15.427Z,100700.88
2023-12-30T15:20:20.233Z,100711.69
2023-12-30T15:23:22.906Z,100715.53
2023-12-30T15:26:25.451Z,100712.94
2023-12-30T15:29:33.146Z,100720.59
2023-12-30T15:32:39.370Z,100725.81
2023-12-30T15:35:43.048Z,100719.34
2023-12-30T15:38:45.734Z,100718.84
2023-12-30T15:41:48.594Z,100723.50
2023-12-30T15:44:51.137Z,100722.38
2023-12-30T15:47:53.766Z,100729.28
2023-12-30T15:50:56.432Z,100729.19
2023-12-30T15:53:59.540Z,100722.38
2023-12-30T15:57:04.961Z,100724.75
2023-12-30T16:00:09.776Z,100730.97
2023-12-30T16:03:14.870Z,100722.00
2023-12-30T16:06:20.076Z,100729.56
2023-12-30T16:09:22.550Z,100717.59
2023-12-30T16:12:27.403Z,100722.16
2023-12-30T16:15:32.540Z,100721.06
2023-12-30T16:18:35.937Z,100725.19
2023-12-30T16:21:38.674Z,100733.94
2023-12-30T16:24:41.197Z,100740.00
2023-12-30T16:27:48.414Z,100741.88
2023-12-30T16:30:51.696Z,100734.41
2023-12-30T16:33:56.511Z,100733.19
2023-12-30T16:37:01.623Z,100728.72
2023-12-30T16:40:07.266Z,100729.66
2023-12-30T16:43:09.859Z,100734.13
2023-12-30T16:46:15.027Z,100737.84
2023-12-30T16:49:17.556Z,100739.03
2023-12-30T16:52:20.738Z,100751.06
2023-12-30T16:55:27.130Z,100759.66
2023-12-30T16:58:32.142Z,100754.31
2023-12-30T17:01:40.503Z,100750.81
2023-12-30T17:04:43.523Z,100735.84
2023-12-30T17:07:48.489Z,100744.03
2023-12-30T17:10:53.341Z,100745.84
2023-12-30T17:13:55.906Z,100746.94
2023-12-30T17:16:58.394Z,100751.66
2023-12-30T17:20:04.077Z,100748.47
2023-12-30T17:23:09.652Z,100737.13
2023-12-30T17:26:13.345Z,100749.72
2023-12-30T17:29:18.404Z,100761.06
2023-12-30T17:32:21.788Z,100764.09
2023-12-30T17:35:29.783Z,100766.56
2023-12-30T17:38:32.494Z,100761.56
2023-12-30T17:41:35.065Z,100764.44
2023-12-30T17:44:37.485Z,100758.28
2023-12-30T17:47:40.107Z,100759.88
2023-12-30T17:50:45.448Z,100763.09
2023-12-30T17:53:48.190Z,100773.88
2023-12-30T17:56:50.857Z,100771.59
2023-12-30T17:59:55.928Z,100767.97
2023-12-30T18:02:58.627Z,100768.75
2023-12-30T18:06:01.405Z,100782.47
2023-12-30T18:09:07.001Z,100780.69
2023-12-30T18:12:12.256Z,100777.94
2023-12-30T18:15:15.970Z,100780.03
2023-12-30T18:18:21.855Z,100795.06
2023-12-30T18:21:30.303Z,100792.13
2023-12-30T18:24:32.899Z,100791.75
2023-12-30T18:27:40.463Z,100782.03
2023-12-30T18:30:46.102Z,100784.25
2023-12-30T18:33:48.662Z,100792.22
2023-12-30T18:36:53.415Z,100790.03
2023-12-30T18:39:55.902Z,100784.16
2023-12-30T18:42:59.107Z,100787.47
2023-12-30T18:46:02.508Z,100786.66
2023-12-30T18:49:31.173Z,100778.97
2023-12-30T18:52:40.890Z,100788.31
2023-12-30T18:55:46.837Z,100787.22
2023-12-30T18:58:51.738Z,100779.41
2023-12-30T19:01:57.308Z,100780.19
2023-12-30T19:06:37.476Z,100766.00
2023-12-30T19:09:47.414Z,100771.69
2023-12-30T19:12:51.170Z,100777.94
2023-12-30T19:15:58.202Z,100783.81
2023-12-30T19:19:01.259Z,100787.69
2023-12-30T19:22:08.568Z,100786.81
2023-12-30T19:25:16.207Z,100788.03
2023-12-30T19:28:20.953Z,100788.34
2023-12-30T19:31:26.057Z,100780.38
2023-12-30T19:34:30.915Z,100777.78
2023-12-30T19:37:33.782Z,100782.56
2023-12-30T19:40:36.393Z,100785.75
2023-12-30T19:43:38.977Z,100791.22
2023-12-30T19:46:43.092Z,100792.00
2023-12-30T19:49:45.934Z,100794.41
2023-12-30T19:52:51.127Z,100800.75
2023-12-30T19:55:53.767Z,100791.59
2023-12-30T19:58:56.312Z,100791.53
2023-12-30T20:02:05.513Z,100789.13
2023-12-30T20:05:19.960Z,100774.53
2023-12-30T20:08:27.329Z,100780.22
2023-12-30T20:11:29.799Z,100786.44
2023-12-30T20:14:38.004Z,100790.13
2023-12-30T20:17:48.829Z,100797.09
2023-12-30T20:20:52.119Z,100797.59
2023-12-30T20:24:02.941Z,100793.13
2023-12-30T20:27:08.148Z,100793.00
2023-12-30T20:30:13.423Z,100787.66
2023-12-30T20:33:16.995Z,100784.09
2023-12-30T20:36:23.751Z,100788.06
2023-12-30T20:39:26.282Z,100790.03
2023-12-30T20:42:30.313Z,100790.50
2023-12-30T20:45:39.492Z,100785.97
2023-12-30T20:48:42.408Z,100783.38
2023-12-30T20:51:51.536Z,100786.63
2023-12-30T20:55:12.045Z,100775.31
2023-12-30T20:58:27.901Z,100780.47
2023-12-30T21:01:31.922Z,100779.56
2023-12-30T21:04:43.292Z,100779.41
2023-12-30T21:07:45.908Z,100779.06
2023-12-30T21:10:48.614Z,100774.41
2023-12-30T21:19:10.082Z,100780.50
2023-12-30T21:22:14.708Z,100784.56
2023-12-30T21:25:23.712Z,100777.81
2023-12-30T21:28:31.713Z,100784.28
2023-12-30T21:31:34.376Z,100784.59
2023-12-30T21:34:36.897Z,100782.88
2023-12-30T21:37:47.700Z,100772.78
2023-12-30T21:40:51.098Z,100779.53
2023-12-30T21:43:56.223Z,100773.66
2023-12-30T21:46:58.864Z,100772.53
2023-12-30T21:50:04.864Z,100769.00
2023-12-30T21:53:25.284Z,100770.56
2023-12-30T21:56:27.782Z,100773.91
2023-12-30T21:59:33.434Z,100776.72
2023-12-30T22:02:38.918Z,100775.72
2023-12-30T22:05:42.614Z,100770.25
2023-12-30T22:08:45.329Z,100756.59
2023-12-30T22:11:47.867Z,100771.81
2023-12-30T22:14:50.333Z,100767.25
2023-12-30T22:17:53.493Z,100766.25
2023-12-30T22:20:56.099Z,100761.69
2023-12-30T22:23:58.494Z,100769.63
2023-12-30T22:27:04.628Z,100766.25
2023-12-30T22:30:10.227Z,100765.25
2023-12-30T22:33:12.914Z,100764.03
2023-12-30T22:36:15.855Z,100756.91
2023-12-30T22:39:19.811Z,100758.47
2023-12-30T22:42:22.330Z,100754.09
2023-12-30T22:45:29.045Z,100752.44
2023-12-30T22:48:31.725Z,100746.59
2023-12-30T22:51:34.200Z,100750.97
2023-12-30T22:54:38.923Z,100747.38
2023-12-30T22:57:42.203Z,100747.56
2023-12-30T23:00:46.758Z,100749.19
2023-12-30T23:03:49.548Z,100748.06
2023-12-30T23:06:54.711Z,100753.91
2023-12-30T23:09:57.231Z,100748.75
2023-12-30T23:13:01.784Z,100742.19
2023-12-30T23:16:04.740Z,100736.91
2023-12-30T23:19:11.904Z,100741.41
2023-12-30T23:22:16.769Z,100744.66
2023-12-30T23:25:19.279Z,100745.44
2023-12-30T23:28:21.810Z,100747.81
2023-12-30T23:31:24.448Z,100744.34
2023-12-30T23:34:39.223Z,100741.97
2023-12-30T23:37:57.630Z,100740.19
2023-12-30T23:41:05.349Z,100739.97
2023-12-30T23:44:10.514Z,100741.22
2023-12-30T23:47:12.977Z,100734.53
2023-12-30T23:50:18.223Z,100742.19
2023-12-30T23:53:20.711Z,100735.91
2023-12-30T23:56:25.593Z,100736.59
2023-12-30T23:59:30.856Z,100741.03
